Prospect Harbor, Maine
Current Conditions -  °F | °C
As of 7:15 PM on Thursday 27 Nov 2014 (Local Time) from KBHB Reporting Station
Overcast Overcast  
Wind Chill: 28°   Ceiling: 2100
Heat Index: 28°   Visibility: 10mi
Dew Point: 27°   Wind: 3mph
Humidity: 93%   Direction: 340°NNW
Pressure: 30"   Gusts: NA
Location:  44.41°N, 68.03°W
Report Text: KBHB 280015Z AUTO 34003KT 10SM BKN021 OVC028 M02/M03 A3000 RMK AO1
Loading
Personal Weather Stations






























Interactive Weather Map New forecast layout! Learn more

10-Day Weather Forecast

Advertisements
Track Severe Weather on mobile